sensor_id;sensor_type;location;lat;lon;timestamp;P1;durP1;ratioP1;P2;durP2;ratioP2
57107;SDS011;42987;52.916;6.542;2023-06-26T00:00:42;12.27;;;11.18;;
57107;SDS011;42987;52.916;6.542;2023-06-26T00:03:08;12.25;;;10.85;;
57107;SDS011;42987;52.916;6.542;2023-06-26T00:05:33;11.15;;;10.23;;
57107;SDS011;42987;52.916;6.542;2023-06-26T00:07:59;11.50;;;10.32;;
57107;SDS011;42987;52.916;6.542;2023-06-26T00:10:28;11.63;;;10.63;;
57107;SDS011;42987;52.916;6.542;2023-06-26T00:12:56;11.75;;;10.65;;
57107;SDS011;42987;52.916;6.542;2023-06-26T00:15:22;11.85;;;10.75;;
57107;SDS011;42987;52.916;6.542;2023-06-26T00:17:49;10.98;;;9.98;;
57107;SDS011;42987;52.916;6.542;2023-06-26T00:20:15;11.25;;;10.18;;
57107;SDS011;42987;52.916;6.542;2023-06-26T00:22:43;11.35;;;10.25;;
57107;SDS011;42987;52.916;6.542;2023-06-26T00:25:10;11.63;;;10.52;;
57107;SDS011;42987;52.916;6.542;2023-06-26T00:27:36;11.70;;;10.60;;
57107;SDS011;42987;52.916;6.542;2023-06-26T00:30:01;11.65;;;10.65;;
57107;SDS011;42987;52.916;6.542;2023-06-26T00:32:28;12.20;;;11.10;;
57107;SDS011;42987;52.916;6.542;2023-06-26T00:34:53;12.52;;;11.43;;
57107;SDS011;42987;52.916;6.542;2023-06-26T00:37:19;11.48;;;10.48;;
57107;SDS011;42987;52.916;6.542;2023-06-26T00:39:46;12.30;;;11.13;;
57107;SDS011;42987;52.916;6.542;2023-06-26T00:42:12;11.90;;;10.80;;
57107;SDS011;42987;52.916;6.542;2023-06-26T00:44:38;11.25;;;10.25;;
57107;SDS011;42987;52.916;6.542;2023-06-26T00:47:04;11.95;;;10.95;;
57107;SDS011;42987;52.916;6.542;2023-06-26T00:49:30;11.75;;;10.75;;
57107;SDS011;42987;52.916;6.542;2023-06-26T00:51:56;12.32;;;11.27;;
57107;SDS011;42987;52.916;6.542;2023-06-26T00:54:22;11.70;;;10.57;;
57107;SDS011;42987;52.916;6.542;2023-06-26T00:56:48;12.50;;;11.35;;
57107;SDS011;42987;52.916;6.542;2023-06-26T00:59:14;12.52;;;11.43;;
57107;SDS011;42987;52.916;6.542;2023-06-26T01:01:40;12.52;;;11.50;;
57107;SDS011;42987;52.916;6.542;2023-06-26T01:04:08;12.90;;;11.70;;
57107;SDS011;42987;52.916;6.542;2023-06-26T01:06:42;12.82;;;11.73;;
57107;SDS011;42987;52.916;6.542;2023-06-26T01:09:18;12.20;;;11.20;;
57107;SDS011;42987;52.916;6.542;2023-06-26T01:11:45;12.82;;;11.73;;
57107;SDS011;42987;52.916;6.542;2023-06-26T01:14:14;12.80;;;11.68;;
57107;SDS011;42987;52.916;6.542;2023-06-26T01:16:40;13.63;;;11.33;;
57107;SDS011;42987;52.916;6.542;2023-06-26T01:19:30;11.98;;;10.88;;
57107;SDS011;42987;52.916;6.542;2023-06-26T01:22:09;12.15;;;11.05;;
57107;SDS011;42987;52.916;6.542;2023-06-26T01:24:42;13.38;;;12.07;;
57107;SDS011;42987;52.916;6.542;2023-06-26T01:27:19;12.73;;;11.63;;
57107;SDS011;42987;52.916;6.542;2023-06-26T01:29:47;11.93;;;10.73;;
57107;SDS011;42987;52.916;6.542;2023-06-26T01:32:15;13.43;;;12.23;;
57107;SDS011;42987;52.916;6.542;2023-06-26T01:34:44;13.85;;;12.65;;
57107;SDS011;42987;52.916;6.542;2023-06-26T01:37:10;13.73;;;12.55;;
57107;SDS011;42987;52.916;6.542;2023-06-26T01:39:38;14.35;;;13.07;;
57107;SDS011;42987;52.916;6.542;2023-06-26T01:42:04;13.60;;;12.30;;
57107;SDS011;42987;52.916;6.542;2023-06-26T01:44:31;14.32;;;13.23;;
57107;SDS011;42987;52.916;6.542;2023-06-26T01:47:05;13.95;;;12.65;;
57107;SDS011;42987;52.916;6.542;2023-06-26T01:55:08;13.88;;;12.68;;
57107;SDS011;42987;52.916;6.542;2023-06-26T01:57:35;14.05;;;12.85;;
57107;SDS011;42987;52.916;6.542;2023-06-26T02:00:02;14.65;;;13.35;;
57107;SDS011;42987;52.916;6.542;2023-06-26T02:02:29;14.00;;;12.80;;
57107;SDS011;42987;52.916;6.542;2023-06-26T02:04:55;15.07;;;13.77;;
57107;SDS011;42987;52.916;6.542;2023-06-26T02:07:21;14.43;;;13.23;;
57107;SDS011;42987;52.916;6.542;2023-06-26T02:09:47;14.18;;;12.88;;
57107;SDS011;42987;52.916;6.542;2023-06-26T02:12:16;14.93;;;13.63;;
57107;SDS011;42987;52.916;6.542;2023-06-26T02:14:42;14.80;;;13.50;;
57107;SDS011;42987;52.916;6.542;2023-06-26T02:17:08;14.60;;;13.40;;
57107;SDS011;42987;52.916;6.542;2023-06-26T02:19:34;15.20;;;13.90;;
57107;SDS011;42987;52.916;6.542;2023-06-26T02:21:59;14.38;;;13.07;;
57107;SDS011;42987;52.916;6.542;2023-06-26T02:24:25;15.43;;;14.13;;
57107;SDS011;42987;52.916;6.542;2023-06-26T02:26:55;15.38;;;14.07;;
57107;SDS011;42987;52.916;6.542;2023-06-26T02:29:22;14.90;;;13.50;;
57107;SDS011;42987;52.916;6.542;2023-06-26T02:31:48;15.02;;;13.73;;
57107;SDS011;42987;52.916;6.542;2023-06-26T02:34:14;15.32;;;14.02;;
57107;SDS011;42987;52.916;6.542;2023-06-26T02:36:39;15.48;;;14.18;;
57107;SDS011;42987;52.916;6.542;2023-06-26T02:39:05;16.75;;;15.25;;
57107;SDS011;42987;52.916;6.542;2023-06-26T02:41:31;14.93;;;13.70;;
57107;SDS011;42987;52.916;6.542;2023-06-26T02:43:57;15.98;;;14.57;;
57107;SDS011;42987;52.916;6.542;2023-06-26T02:46:22;14.18;;;13.00;;
57107;SDS011;42987;52.916;6.542;2023-06-26T02:48:48;15.25;;;13.93;;
57107;SDS011;42987;52.916;6.542;2023-06-26T02:51:14;15.95;;;14.52;;
57107;SDS011;42987;52.916;6.542;2023-06-26T02:53:40;15.30;;;13.98;;
57107;SDS011;42987;52.916;6.542;2023-06-26T02:56:05;15.25;;;13.60;;
57107;SDS011;42987;52.916;6.542;2023-06-26T02:58:31;15.45;;;14.02;;
57107;SDS011;42987;52.916;6.542;2023-06-26T03:00:57;15.57;;;14.27;;
57107;SDS011;42987;52.916;6.542;2023-06-26T03:03:23;15.88;;;14.57;;
57107;SDS011;42987;52.916;6.542;2023-06-26T03:05:49;16.10;;;14.70;;
57107;SDS011;42987;52.916;6.542;2023-06-26T03:08:15;14.75;;;13.48;;
57107;SDS011;42987;52.916;6.542;2023-06-26T03:10:41;15.90;;;14.45;;
57107;SDS011;42987;52.916;6.542;2023-06-26T03:13:07;17.85;;;16.00;;
57107;SDS011;42987;52.916;6.542;2023-06-26T03:15:32;17.08;;;15.52;;
57107;SDS011;42987;52.916;6.542;2023-06-26T03:17:58;16.23;;;14.63;;
57107;SDS011;42987;52.916;6.542;2023-06-26T03:20:24;16.27;;;14.85;;
57107;SDS011;42987;52.916;6.542;2023-06-26T03:22:50;16.48;;;15.00;;
57107;SDS011;42987;52.916;6.542;2023-06-26T03:25:16;17.58;;;15.98;;
57107;SDS011;42987;52.916;6.542;2023-06-26T03:27:42;17.55;;;15.88;;
57107;SDS011;42987;52.916;6.542;2023-06-26T03:30:08;17.15;;;15.65;;
57107;SDS011;42987;52.916;6.542;2023-06-26T03:32:34;16.00;;;14.60;;
57107;SDS011;42987;52.916;6.542;2023-06-26T03:35:00;16.85;;;15.43;;
57107;SDS011;42987;52.916;6.542;2023-06-26T03:37:28;16.92;;;15.30;;
57107;SDS011;42987;52.916;6.542;2023-06-26T03:39:54;15.38;;;13.98;;
57107;SDS011;42987;52.916;6.542;2023-06-26T03:42:20;15.43;;;14.13;;
57107;SDS011;42987;52.916;6.542;2023-06-26T03:44:45;13.57;;;12.18;;
57107;SDS011;42987;52.916;6.542;2023-06-26T03:47:11;15.15;;;13.75;;
57107;SDS011;42987;52.916;6.542;2023-06-26T03:49:37;15.02;;;13.73;;
57107;SDS011;42987;52.916;6.542;2023-06-26T03:52:02;14.40;;;12.98;;
57107;SDS011;42987;52.916;6.542;2023-06-26T03:54:28;13.68;;;12.30;;
57107;SDS011;42987;52.916;6.542;2023-06-26T03:56:54;13.25;;;12.05;;
57107;SDS011;42987;52.916;6.542;2023-06-26T03:59:20;13.23;;;12.02;;
57107;SDS011;42987;52.916;6.542;2023-06-26T04:01:46;13.93;;;12.63;;
57107;SDS011;42987;52.916;6.542;2023-06-26T04:04:12;12.30;;;11.20;;
57107;SDS011;42987;52.916;6.542;2023-06-26T04:06:37;13.40;;;12.00;;
57107;SDS011;42987;52.916;6.542;2023-06-26T04:09:04;12.82;;;11.63;;
57107;SDS011;42987;52.916;6.542;2023-06-26T04:11:30;12.77;;;11.45;;
57107;SDS011;42987;52.916;6.542;2023-06-26T04:13:56;12.57;;;11.27;;
57107;SDS011;42987;52.916;6.542;2023-06-26T04:16:22;11.63;;;10.48;;
57107;SDS011;42987;52.916;6.542;2023-06-26T04:18:51;12.27;;;11.15;;
57107;SDS011;42987;52.916;6.542;2023-06-26T04:21:18;12.23;;;11.02;;
57107;SDS011;42987;52.916;6.542;2023-06-26T04:23:45;11.10;;;10.00;;
57107;SDS011;42987;52.916;6.542;2023-06-26T04:26:12;12.02;;;10.90;;
57107;SDS011;42987;52.916;6.542;2023-06-26T04:28:41;13.27;;;11.98;;
57107;SDS011;42987;52.916;6.542;2023-06-26T04:31:07;13.23;;;12.02;;
57107;SDS011;42987;52.916;6.542;2023-06-26T04:33:34;13.65;;;12.38;;
57107;SDS011;42987;52.916;6.542;2023-06-26T04:38:30;14.23;;;12.80;;
57107;SDS011;42987;52.916;6.542;2023-06-26T04:41:00;13.32;;;12.13;;
57107;SDS011;42987;52.916;6.542;2023-06-26T04:43:26;14.35;;;12.98;;
57107;SDS011;42987;52.916;6.542;2023-06-26T04:45:52;13.68;;;12.25;;
57107;SDS011;42987;52.916;6.542;2023-06-26T04:48:18;12.90;;;11.50;;
57107;SDS011;42987;52.916;6.542;2023-06-26T04:50:44;12.93;;;10.85;;
57107;SDS011;42987;52.916;6.542;2023-06-26T04:53:17;13.38;;;9.98;;
57107;SDS011;42987;52.916;6.542;2023-06-26T04:55:43;15.25;;;10.27;;
57107;SDS011;42987;52.916;6.542;2023-06-26T04:58:18;13.00;;;8.93;;
57107;SDS011;42987;52.916;6.542;2023-06-26T05:00:44;11.68;;;8.95;;
57107;SDS011;42987;52.916;6.542;2023-06-26T05:03:14;12.27;;;9.48;;
57107;SDS011;42987;52.916;6.542;2023-06-26T05:05:45;14.57;;;10.00;;
57107;SDS011;42987;52.916;6.542;2023-06-26T05:08:14;12.85;;;9.38;;
57107;SDS011;42987;52.916;6.542;2023-06-26T05:10:51;16.67;;;10.13;;
57107;SDS011;42987;52.916;6.542;2023-06-26T05:13:18;13.65;;;9.35;;
57107;SDS011;42987;52.916;6.542;2023-06-26T05:15:45;15.50;;;9.95;;
57107;SDS011;42987;52.916;6.542;2023-06-26T05:18:11;13.85;;;9.57;;
57107;SDS011;42987;52.916;6.542;2023-06-26T05:20:37;15.05;;;10.10;;
57107;SDS011;42987;52.916;6.542;2023-06-26T05:23:04;12.88;;;9.00;;
57107;SDS011;42987;52.916;6.542;2023-06-26T05:25:30;13.23;;;9.85;;
57107;SDS011;42987;52.916;6.542;2023-06-26T05:27:57;14.50;;;10.15;;
57107;SDS011;42987;52.916;6.542;2023-06-26T05:30:24;13.13;;;9.77;;
57107;SDS011;42987;52.916;6.542;2023-06-26T05:32:51;11.63;;;9.52;;
57107;SDS011;42987;52.916;6.542;2023-06-26T05:37:50;13.25;;;9.35;;
57107;SDS011;42987;52.916;6.542;2023-06-26T05:40:17;14.00;;;9.60;;
57107;SDS011;42987;52.916;6.542;2023-06-26T05:42:44;16.08;;;9.00;;
57107;SDS011;42987;52.916;6.542;2023-06-26T05:45:10;9.73;;;8.63;;
57107;SDS011;42987;52.916;6.542;2023-06-26T05:47:36;14.43;;;8.80;;
57107;SDS011;42987;52.916;6.542;2023-06-26T05:50:03;12.00;;;8.35;;
57107;SDS011;42987;52.916;6.542;2023-06-26T05:52:29;12.90;;;7.97;;
57107;SDS011;42987;52.916;6.542;2023-06-26T05:54:59;13.07;;;8.65;;
57107;SDS011;42987;52.916;6.542;2023-06-26T05:57:34;10.80;;;7.63;;
57107;SDS011;42987;52.916;6.542;2023-06-26T06:00:05;11.32;;;7.20;;
57107;SDS011;42987;52.916;6.542;2023-06-26T06:02:36;9.57;;;6.40;;
57107;SDS011;42987;52.916;6.542;2023-06-26T06:05:05;11.48;;;6.30;;
57107;SDS011;42987;52.916;6.542;2023-06-26T06:07:32;9.80;;;5.55;;
57107;SDS011;42987;52.916;6.542;2023-06-26T06:09:59;10.13;;;5.80;;
57107;SDS011;42987;52.916;6.542;2023-06-26T06:12:25;11.32;;;5.60;;
57107;SDS011;42987;52.916;6.542;2023-06-26T06:14:51;11.13;;;5.25;;
57107;SDS011;42987;52.916;6.542;2023-06-26T06:17:18;11.57;;;4.70;;
57107;SDS011;42987;52.916;6.542;2023-06-26T06:19:46;9.70;;;3.92;;
57107;SDS011;42987;52.916;6.542;2023-06-26T06:22:12;7.88;;;3.50;;
57107;SDS011;42987;52.916;6.542;2023-06-26T06:24:38;9.15;;;3.55;;
57107;SDS011;42987;52.916;6.542;2023-06-26T06:27:04;7.10;;;3.42;;
57107;SDS011;42987;52.916;6.542;2023-06-26T06:29:30;8.38;;;4.18;;
57107;SDS011;42987;52.916;6.542;2023-06-26T06:31:58;7.30;;;3.58;;
57107;SDS011;42987;52.916;6.542;2023-06-26T06:34:24;7.82;;;3.92;;
57107;SDS011;42987;52.916;6.542;2023-06-26T06:36:50;7.93;;;3.53;;
57107;SDS011;42987;52.916;6.542;2023-06-26T06:39:19;9.63;;;3.35;;
57107;SDS011;42987;52.916;6.542;2023-06-26T06:41:44;6.80;;;3.33;;
57107;SDS011;42987;52.916;6.542;2023-06-26T06:44:10;6.93;;;3.40;;
57107;SDS011;42987;52.916;6.542;2023-06-26T06:46:36;8.07;;;3.10;;
57107;SDS011;42987;52.916;6.542;2023-06-26T06:49:05;6.53;;;2.50;;
57107;SDS011;42987;52.916;6.542;2023-06-26T06:51:31;7.23;;;2.90;;
57107;SDS011;42987;52.916;6.542;2023-06-26T06:53:56;5.97;;;2.78;;
57107;SDS011;42987;52.916;6.542;2023-06-26T06:56:22;6.95;;;2.70;;
57107;SDS011;42987;52.916;6.542;2023-06-26T06:58:48;7.70;;;3.05;;
57107;SDS011;42987;52.916;6.542;2023-06-26T07:01:14;5.60;;;2.60;;
57107;SDS011;42987;52.916;6.542;2023-06-26T07:03:40;5.90;;;2.47;;
57107;SDS011;42987;52.916;6.542;2023-06-26T07:06:08;5.63;;;2.50;;
57107;SDS011;42987;52.916;6.542;2023-06-26T07:08:34;6.45;;;2.22;;
57107;SDS011;42987;52.916;6.542;2023-06-26T07:11:00;6.65;;;2.15;;
57107;SDS011;42987;52.916;6.542;2023-06-26T07:13:26;6.88;;;2.78;;
57107;SDS011;42987;52.916;6.542;2023-06-26T07:15:52;5.85;;;2.25;;
57107;SDS011;42987;52.916;6.542;2023-06-26T07:18:18;7.75;;;2.60;;
57107;SDS011;42987;52.916;6.542;2023-06-26T07:20:43;8.27;;;2.65;;
57107;SDS011;42987;52.916;6.542;2023-06-26T07:23:09;8.02;;;2.40;;
57107;SDS011;42987;52.916;6.542;2023-06-26T07:25:35;6.13;;;2.30;;
57107;SDS011;42987;52.916;6.542;2023-06-26T07:28:01;7.35;;;3.10;;
57107;SDS011;42987;52.916;6.542;2023-06-26T07:30:34;5.63;;;2.55;;
57107;SDS011;42987;52.916;6.542;2023-06-26T07:33:00;6.15;;;2.30;;
57107;SDS011;42987;52.916;6.542;2023-06-26T07:35:26;5.13;;;2.33;;
57107;SDS011;42987;52.916;6.542;2023-06-26T07:37:52;8.38;;;2.15;;
57107;SDS011;42987;52.916;6.542;2023-06-26T07:40:18;5.68;;;2.15;;
57107;SDS011;42987;52.916;6.542;2023-06-26T07:42:44;4.65;;;2.20;;
57107;SDS011;42987;52.916;6.542;2023-06-26T07:45:11;5.80;;;1.92;;
57107;SDS011;42987;52.916;6.542;2023-06-26T07:47:43;7.78;;;2.20;;
57107;SDS011;42987;52.916;6.542;2023-06-26T07:50:09;7.07;;;2.55;;
57107;SDS011;42987;52.916;6.542;2023-06-26T07:52:36;6.47;;;2.38;;
57107;SDS011;42987;52.916;6.542;2023-06-26T07:55:02;6.85;;;2.20;;
57107;SDS011;42987;52.916;6.542;2023-06-26T07:57:29;6.18;;;2.00;;
57107;SDS011;42987;52.916;6.542;2023-06-26T07:59:55;5.65;;;2.40;;
57107;SDS011;42987;52.916;6.542;2023-06-26T08:02:21;6.65;;;2.03;;
57107;SDS011;42987;52.916;6.542;2023-06-26T08:04:47;6.22;;;1.80;;
57107;SDS011;42987;52.916;6.542;2023-06-26T08:07:13;6.15;;;1.92;;
57107;SDS011;42987;52.916;6.542;2023-06-26T08:09:39;6.63;;;2.08;;
57107;SDS011;42987;52.916;6.542;2023-06-26T08:12:08;5.37;;;2.00;;
57107;SDS011;42987;52.916;6.542;2023-06-26T08:14:34;5.38;;;1.95;;
57107;SDS011;42987;52.916;6.542;2023-06-26T08:17:00;7.20;;;2.15;;
57107;SDS011;42987;52.916;6.542;2023-06-26T08:19:25;6.20;;;1.77;;
57107;SDS011;42987;52.916;6.542;2023-06-26T08:21:51;4.32;;;1.77;;
57107;SDS011;42987;52.916;6.542;2023-06-26T08:24:17;3.22;;;1.40;;
57107;SDS011;42987;52.916;6.542;2023-06-26T08:26:44;4.07;;;1.63;;
57107;SDS011;42987;52.916;6.542;2023-06-26T08:29:14;5.45;;;1.60;;
57107;SDS011;42987;52.916;6.542;2023-06-26T08:31:40;3.60;;;1.73;;
57107;SDS011;42987;52.916;6.542;2023-06-26T08:34:07;3.97;;;1.80;;
57107;SDS011;42987;52.916;6.542;2023-06-26T08:36:33;3.58;;;1.92;;
57107;SDS011;42987;52.916;6.542;2023-06-26T08:38:59;5.35;;;1.98;;
57107;SDS011;42987;52.916;6.542;2023-06-26T08:41:25;6.50;;;2.10;;
57107;SDS011;42987;52.916;6.542;2023-06-26T08:43:51;6.90;;;2.20;;
57107;SDS011;42987;52.916;6.542;2023-06-26T08:46:18;6.10;;;2.13;;
57107;SDS011;42987;52.916;6.542;2023-06-26T08:49:18;4.50;;;2.35;;
57107;SDS011;42987;52.916;6.542;2023-06-26T08:52:01;3.95;;;2.00;;
57107;SDS011;42987;52.916;6.542;2023-06-26T08:54:33;5.72;;;2.20;;
57107;SDS011;42987;52.916;6.542;2023-06-26T08:57:06;6.32;;;2.13;;
57107;SDS011;42987;52.916;6.542;2023-06-26T08:59:32;6.38;;;2.33;;
57107;SDS011;42987;52.916;6.542;2023-06-26T09:01:58;4.32;;;1.98;;
57107;SDS011;42987;52.916;6.542;2023-06-26T09:04:24;5.10;;;2.22;;
57107;SDS011;42987;52.916;6.542;2023-06-26T09:06:50;6.45;;;2.40;;
57107;SDS011;42987;52.916;6.542;2023-06-26T09:09:16;5.18;;;2.65;;
57107;SDS011;42987;52.916;6.542;2023-06-26T09:11:45;5.60;;;2.72;;
57107;SDS011;42987;52.916;6.542;2023-06-26T09:14:11;6.07;;;2.50;;
57107;SDS011;42987;52.916;6.542;2023-06-26T09:16:39;4.55;;;2.17;;
57107;SDS011;42987;52.916;6.542;2023-06-26T09:19:12;6.63;;;2.45;;
57107;SDS011;42987;52.916;6.542;2023-06-26T09:21:39;5.35;;;2.38;;
57107;SDS011;42987;52.916;6.542;2023-06-26T09:24:09;4.78;;;2.30;;
57107;SDS011;42987;52.916;6.542;2023-06-26T09:26:36;4.93;;;2.47;;
57107;SDS011;42987;52.916;6.542;2023-06-26T09:29:04;4.53;;;2.20;;
57107;SDS011;42987;52.916;6.542;2023-06-26T09:31:31;6.20;;;2.40;;
57107;SDS011;42987;52.916;6.542;2023-06-26T09:34:05;6.35;;;2.50;;
57107;SDS011;42987;52.916;6.542;2023-06-26T09:36:31;4.70;;;2.20;;
57107;SDS011;42987;52.916;6.542;2023-06-26T09:41:28;5.65;;;2.30;;
57107;SDS011;42987;52.916;6.542;2023-06-26T09:43:54;4.88;;;2.40;;
57107;SDS011;42987;52.916;6.542;2023-06-26T09:46:25;4.75;;;2.20;;
57107;SDS011;42987;52.916;6.542;2023-06-26T09:48:59;5.50;;;2.70;;
57107;SDS011;42987;52.916;6.542;2023-06-26T09:51:34;4.90;;;2.40;;
57107;SDS011;42987;52.916;6.542;2023-06-26T09:54:01;5.40;;;2.40;;
57107;SDS011;42987;52.916;6.542;2023-06-26T09:56:30;5.55;;;2.50;;
57107;SDS011;42987;52.916;6.542;2023-06-26T09:58:57;7.53;;;2.72;;
57107;SDS011;42987;52.916;6.542;2023-06-26T10:01:24;6.75;;;2.58;;
57107;SDS011;42987;52.916;6.542;2023-06-26T10:03:50;6.30;;;2.30;;
57107;SDS011;42987;52.916;6.542;2023-06-26T10:06:18;6.55;;;1.90;;
57107;SDS011;42987;52.916;6.542;2023-06-26T10:08:47;4.70;;;2.10;;
57107;SDS011;42987;52.916;6.542;2023-06-26T10:11:16;6.30;;;2.20;;
57107;SDS011;42987;52.916;6.542;2023-06-26T10:13:44;10.88;;;2.20;;
57107;SDS011;42987;52.916;6.542;2023-06-26T10:16:12;5.45;;;2.20;;
57107;SDS011;42987;52.916;6.542;2023-06-26T10:18:42;6.10;;;2.88;;
57107;SDS011;42987;52.916;6.542;2023-06-26T10:21:09;4.53;;;2.47;;
57107;SDS011;42987;52.916;6.542;2023-06-26T10:23:38;4.00;;;2.15;;
57107;SDS011;42987;52.916;6.542;2023-06-26T10:26:06;4.30;;;2.28;;
57107;SDS011;42987;52.916;6.542;2023-06-26T10:28:33;4.75;;;2.25;;
57107;SDS011;42987;52.916;6.542;2023-06-26T10:31:01;5.88;;;2.42;;
57107;SDS011;42987;52.916;6.542;2023-06-26T10:33:30;9.25;;;3.10;;
57107;SDS011;42987;52.916;6.542;2023-06-26T10:38:53;4.15;;;2.10;;
57107;SDS011;42987;52.916;6.542;2023-06-26T10:41:21;3.97;;;2.22;;
57107;SDS011;42987;52.916;6.542;2023-06-26T10:46:55;4.35;;;1.90;;
57107;SDS011;42987;52.916;6.542;2023-06-26T10:49:28;8.73;;;2.10;;
57107;SDS011;42987;52.916;6.542;2023-06-26T10:51:54;5.82;;;1.70;;
57107;SDS011;42987;52.916;6.542;2023-06-26T10:54:25;5.93;;;1.98;;
57107;SDS011;42987;52.916;6.542;2023-06-26T10:56:55;6.47;;;1.73;;
57107;SDS011;42987;52.916;6.542;2023-06-26T10:59:22;3.22;;;1.50;;
57107;SDS011;42987;52.916;6.542;2023-06-26T11:09:57;3.75;;;1.65;;
57107;SDS011;42987;52.916;6.542;2023-06-26T11:12:41;3.60;;;1.38;;
57107;SDS011;42987;52.916;6.542;2023-06-26T11:15:16;6.70;;;1.85;;
57107;SDS011;42987;52.916;6.542;2023-06-26T11:17:44;6.43;;;1.88;;
57107;SDS011;42987;52.916;6.542;2023-06-26T11:20:11;2.83;;;1.35;;
57107;SDS011;42987;52.916;6.542;2023-06-26T11:22:38;4.72;;;1.60;;
57107;SDS011;42987;52.916;6.542;2023-06-26T11:25:05;3.10;;;1.40;;
57107;SDS011;42987;52.916;6.542;2023-06-26T11:27:37;3.67;;;1.85;;
57107;SDS011;42987;52.916;6.542;2023-06-26T11:30:03;6.07;;;1.50;;
57107;SDS011;42987;52.916;6.542;2023-06-26T11:32:34;5.82;;;1.98;;
57107;SDS011;42987;52.916;6.542;2023-06-26T11:35:01;4.97;;;1.90;;
57107;SDS011;42987;52.916;6.542;2023-06-26T11:37:26;3.70;;;1.58;;
57107;SDS011;42987;52.916;6.542;2023-06-26T11:39:56;7.47;;;1.73;;
57107;SDS011;42987;52.916;6.542;2023-06-26T11:42:21;6.95;;;1.73;;
57107;SDS011;42987;52.916;6.542;2023-06-26T11:44:49;3.65;;;1.40;;
57107;SDS011;42987;52.916;6.542;2023-06-26T11:47:18;3.63;;;1.02;;
57107;SDS011;42987;52.916;6.542;2023-06-26T11:49:46;1.95;;;0.90;;
57107;SDS011;42987;52.916;6.542;2023-06-26T11:52:13;3.35;;;1.10;;
57107;SDS011;42987;52.916;6.542;2023-06-26T11:54:40;4.07;;;1.10;;
57107;SDS011;42987;52.916;6.542;2023-06-26T11:57:07;4.55;;;1.10;;
57107;SDS011;42987;52.916;6.542;2023-06-26T11:59:37;3.88;;;1.00;;
57107;SDS011;42987;52.916;6.542;2023-06-26T12:02:08;4.25;;;1.13;;
57107;SDS011;42987;52.916;6.542;2023-06-26T12:04:36;3.05;;;1.30;;
57107;SDS011;42987;52.916;6.542;2023-06-26T12:07:04;5.45;;;1.42;;
57107;SDS011;42987;52.916;6.542;2023-06-26T12:12:03;3.30;;;1.08;;
57107;SDS011;42987;52.916;6.542;2023-06-26T12:14:29;4.38;;;1.40;;
57107;SDS011;42987;52.916;6.542;2023-06-26T12:16:56;6.05;;;1.35;;
57107;SDS011;42987;52.916;6.542;2023-06-26T12:19:30;5.80;;;1.20;;
57107;SDS011;42987;52.916;6.542;2023-06-26T12:21:58;8.20;;;1.33;;
57107;SDS011;42987;52.916;6.542;2023-06-26T12:24:27;5.43;;;1.40;;
57107;SDS011;42987;52.916;6.542;2023-06-26T12:26:54;6.35;;;1.50;;
57107;SDS011;42987;52.916;6.542;2023-06-26T12:29:24;5.72;;;1.20;;
57107;SDS011;42987;52.916;6.542;2023-06-26T12:31:56;4.25;;;1.00;;
57107;SDS011;42987;52.916;6.542;2023-06-26T12:34:31;4.17;;;1.10;;
57107;SDS011;42987;52.916;6.542;2023-06-26T12:37:04;5.60;;;1.20;;
57107;SDS011;42987;52.916;6.542;2023-06-26T12:42:44;5.55;;;1.20;;
57107;SDS011;42987;52.916;6.542;2023-06-26T12:45:11;4.97;;;1.20;;
57107;SDS011;42987;52.916;6.542;2023-06-26T12:47:38;3.65;;;0.70;;
57107;SDS011;42987;52.916;6.542;2023-06-26T12:50:06;8.45;;;1.20;;
57107;SDS011;42987;52.916;6.542;2023-06-26T12:52:33;5.75;;;1.15;;
57107;SDS011;42987;52.916;6.542;2023-06-26T12:54:59;3.85;;;1.10;;
57107;SDS011;42987;52.916;6.542;2023-06-26T12:57:25;5.13;;;1.30;;
57107;SDS011;42987;52.916;6.542;2023-06-26T12:59:51;6.70;;;1.48;;
57107;SDS011;42987;52.916;6.542;2023-06-26T13:02:17;16.45;;;2.15;;
57107;SDS011;42987;52.916;6.542;2023-06-26T13:04:44;4.18;;;1.02;;
57107;SDS011;42987;52.916;6.542;2023-06-26T13:07:10;4.57;;;1.50;;
57107;SDS011;42987;52.916;6.542;2023-06-26T13:09:37;3.72;;;1.23;;
57107;SDS011;42987;52.916;6.542;2023-06-26T13:12:04;6.25;;;1.50;;
57107;SDS011;42987;52.916;6.542;2023-06-26T13:14:31;5.07;;;1.60;;
57107;SDS011;42987;52.916;6.542;2023-06-26T13:16:58;6.35;;;1.50;;
57107;SDS011;42987;52.916;6.542;2023-06-26T13:19:25;6.45;;;1.98;;
57107;SDS011;42987;52.916;6.542;2023-06-26T13:21:51;4.53;;;1.55;;
57107;SDS011;42987;52.916;6.542;2023-06-26T13:24:17;5.28;;;1.67;;
57107;SDS011;42987;52.916;6.542;2023-06-26T13:26:43;5.05;;;1.70;;
57107;SDS011;42987;52.916;6.542;2023-06-26T13:54:50;6.30;;;1.88;;
57107;SDS011;42987;52.916;6.542;2023-06-26T13:57:16;5.68;;;1.60;;
57107;SDS011;42987;52.916;6.542;2023-06-26T13:59:44;7.18;;;1.70;;
57107;SDS011;42987;52.916;6.542;2023-06-26T14:02:10;6.25;;;1.60;;
57107;SDS011;42987;52.916;6.542;2023-06-26T14:04:35;6.20;;;1.70;;
57107;SDS011;42987;52.916;6.542;2023-06-26T14:07:04;6.13;;;1.52;;
57107;SDS011;42987;52.916;6.542;2023-06-26T14:09:32;7.68;;;1.80;;
57107;SDS011;42987;52.916;6.542;2023-06-26T14:11:58;6.60;;;2.10;;
57107;SDS011;42987;52.916;6.542;2023-06-26T14:14:24;5.25;;;1.42;;
57107;SDS011;42987;52.916;6.542;2023-06-26T14:16:49;3.47;;;1.10;;
57107;SDS011;42987;52.916;6.542;2023-06-26T14:19:18;6.05;;;1.42;;
57107;SDS011;42987;52.916;6.542;2023-06-26T14:21:44;4.88;;;1.27;;
57107;SDS011;42987;52.916;6.542;2023-06-26T14:24:10;4.70;;;1.45;;
57107;SDS011;42987;52.916;6.542;2023-06-26T14:26:39;4.30;;;1.25;;
57107;SDS011;42987;52.916;6.542;2023-06-26T14:29:05;4.53;;;1.13;;
57107;SDS011;42987;52.916;6.542;2023-06-26T14:31:31;4.38;;;1.48;;
57107;SDS011;42987;52.916;6.542;2023-06-26T14:33:57;5.45;;;1.65;;
57107;SDS011;42987;52.916;6.542;2023-06-26T14:36:24;5.15;;;1.23;;
57107;SDS011;42987;52.916;6.542;2023-06-26T14:38:51;3.50;;;1.40;;
57107;SDS011;42987;52.916;6.542;2023-06-26T14:41:17;5.00;;;1.42;;
57107;SDS011;42987;52.916;6.542;2023-06-26T14:43:43;5.60;;;1.30;;
57107;SDS011;42987;52.916;6.542;2023-06-26T14:46:11;7.90;;;1.33;;
57107;SDS011;42987;52.916;6.542;2023-06-26T14:48:37;5.55;;;1.40;;
57107;SDS011;42987;52.916;6.542;2023-06-26T14:51:03;5.68;;;1.50;;
57107;SDS011;42987;52.916;6.542;2023-06-26T14:53:29;6.78;;;1.48;;
57107;SDS011;42987;52.916;6.542;2023-06-26T14:55:55;4.70;;;1.30;;
57107;SDS011;42987;52.916;6.542;2023-06-26T14:58:21;5.88;;;1.70;;
57107;SDS011;42987;52.916;6.542;2023-06-26T15:00:47;5.10;;;1.63;;
57107;SDS011;42987;52.916;6.542;2023-06-26T15:03:13;4.70;;;1.50;;
57107;SDS011;42987;52.916;6.542;2023-06-26T15:05:39;6.25;;;1.48;;
57107;SDS011;42987;52.916;6.542;2023-06-26T15:08:05;7.70;;;1.80;;
57107;SDS011;42987;52.916;6.542;2023-06-26T15:10:31;6.32;;;1.65;;
57107;SDS011;42987;52.916;6.542;2023-06-26T15:12:56;4.25;;;1.30;;
57107;SDS011;42987;52.916;6.542;2023-06-26T15:15:24;6.22;;;1.63;;
57107;SDS011;42987;52.916;6.542;2023-06-26T15:17:50;5.22;;;1.73;;
57107;SDS011;42987;52.916;6.542;2023-06-26T15:20:15;7.30;;;2.05;;
57107;SDS011;42987;52.916;6.542;2023-06-26T15:22:41;4.82;;;1.58;;
57107;SDS011;42987;52.916;6.542;2023-06-26T15:25:07;5.50;;;1.77;;
57107;SDS011;42987;52.916;6.542;2023-06-26T15:27:33;6.50;;;1.92;;
57107;SDS011;42987;52.916;6.542;2023-06-26T15:29:59;4.80;;;1.38;;
57107;SDS011;42987;52.916;6.542;2023-06-26T15:32:25;6.35;;;1.67;;
57107;SDS011;42987;52.916;6.542;2023-06-26T15:34:50;5.30;;;1.65;;
57107;SDS011;42987;52.916;6.542;2023-06-26T15:37:16;4.53;;;1.42;;